sensor_id;sensor_type;location;lat;lon;timestamp;pressure;altitude;pressure_sealevel;temperature;humidity
62031;BME280;62035;52.094;5.112;2023-04-15T00:00:44;100929.75;;;9.64;100.00
62031;BME280;62035;52.094;5.112;2023-04-15T00:03:12;100924.44;;;9.64;100.00
62031;BME280;62035;52.094;5.112;2023-04-15T00:05:40;100931.44;;;9.65;100.00
62031;BME280;62035;52.094;5.112;2023-04-15T00:08:08;100933.28;;;9.55;100.00
62031;BME280;62035;52.094;5.112;2023-04-15T00:10:35;100931.19;;;9.49;100.00
62031;BME280;62035;52.094;5.112;2023-04-15T00:13:03;100924.47;;;9.54;100.00
62031;BME280;62035;52.094;5.112;2023-04-15T00:15:30;100930.47;;;9.37;100.00
62031;BME280;62035;52.094;5.112;2023-04-15T00:17:58;100932.53;;;9.62;100.00
62031;BME280;62035;52.094;5.112;2023-04-15T00:20:27;100922.50;;;9.56;100.00
62031;BME280;62035;52.094;5.112;2023-04-15T00:22:55;100922.38;;;9.58;100.00
62031;BME280;62035;52.094;5.112;2023-04-15T00:25:23;100921.22;;;9.70;100.00
62031;BME280;62035;52.094;5.112;2023-04-15T00:27:50;100931.59;;;9.54;100.00
62031;BME280;62035;52.094;5.112;2023-04-15T00:30:18;100927.97;;;9.45;100.00
62031;BME280;62035;52.094;5.112;2023-04-15T00:32:46;100923.75;;;9.62;100.00
62031;BME280;62035;52.094;5.112;2023-04-15T00:35:14;100924.88;;;9.50;100.00
62031;BME280;62035;52.094;5.112;2023-04-15T00:37:43;100928.22;;;9.61;100.00
62031;BME280;62035;52.094;5.112;2023-04-15T00:40:11;100913.28;;;9.31;100.00
62031;BME280;62035;52.094;5.112;2023-04-15T00:42:40;100927.53;;;9.30;100.00
62031;BME280;62035;52.094;5.112;2023-04-15T00:45:08;100934.38;;;9.14;100.00
62031;BME280;62035;52.094;5.112;2023-04-15T00:47:38;100924.31;;;9.36;100.00
62031;BME280;62035;52.094;5.112;2023-04-15T00:50:08;100923.19;;;9.39;100.00
62031;BME280;62035;52.094;5.112;2023-04-15T00:52:37;100925.69;;;9.21;100.00
62031;BME280;62035;52.094;5.112;2023-04-15T00:55:07;100928.34;;;9.02;100.00
62031;BME280;62035;52.094;5.112;2023-04-15T00:57:36;100933.53;;;9.23;100.00
62031;BME280;62035;52.094;5.112;2023-04-15T01:00:06;100938.00;;;9.22;100.00
62031;BME280;62035;52.094;5.112;2023-04-15T01:02:36;100931.56;;;9.25;100.00
62031;BME280;62035;52.094;5.112;2023-04-15T01:05:04;100926.41;;;9.23;100.00
62031;BME280;62035;52.094;5.112;2023-04-15T01:07:32;100934.94;;;9.17;100.00
62031;BME280;62035;52.094;5.112;2023-04-15T01:10:00;100936.59;;;9.09;100.00
62031;BME280;62035;52.094;5.112;2023-04-15T01:12:31;100944.97;;;9.04;100.00
62031;BME280;62035;52.094;5.112;2023-04-15T01:15:00;100938.38;;;8.98;100.00
62031;BME280;62035;52.094;5.112;2023-04-15T01:17:28;100939.06;;;8.91;100.00
62031;BME280;62035;52.094;5.112;2023-04-15T01:19:56;100936.56;;;8.99;100.00
62031;BME280;62035;52.094;5.112;2023-04-15T01:22:24;100929.25;;;8.82;100.00
62031;BME280;62035;52.094;5.112;2023-04-15T01:25:00;100936.25;;;8.83;100.00
62031;BME280;62035;52.094;5.112;2023-04-15T01:27:35;100942.88;;;8.58;100.00
62031;BME280;62035;52.094;5.112;2023-04-15T01:30:06;100934.69;;;8.71;100.00
62031;BME280;62035;52.094;5.112;2023-04-15T01:32:35;100929.53;;;8.69;100.00
62031;BME280;62035;52.094;5.112;2023-04-15T01:35:03;100941.28;;;8.76;100.00
62031;BME280;62035;52.094;5.112;2023-04-15T01:37:32;100935.00;;;8.47;100.00
62031;BME280;62035;52.094;5.112;2023-04-15T01:40:00;100939.56;;;8.65;100.00
62031;BME280;62035;52.094;5.112;2023-04-15T01:42:28;100934.56;;;8.72;100.00
62031;BME280;62035;52.094;5.112;2023-04-15T01:44:57;100943.66;;;8.39;100.00
62031;BME280;62035;52.094;5.112;2023-04-15T01:47:25;100939.59;;;8.45;100.00
62031;BME280;62035;52.094;5.112;2023-04-15T01:49:53;100948.66;;;8.42;100.00
62031;BME280;62035;52.094;5.112;2023-04-15T01:52:21;100941.41;;;8.44;100.00
62031;BME280;62035;52.094;5.112;2023-04-15T01:54:48;100946.16;;;8.41;100.00
62031;BME280;62035;52.094;5.112;2023-04-15T01:57:16;100948.41;;;8.45;100.00
62031;BME280;62035;52.094;5.112;2023-04-15T01:59:43;100948.28;;;8.26;100.00
62031;BME280;62035;52.094;5.112;2023-04-15T02:02:13;100948.97;;;8.39;100.00
62031;BME280;62035;52.094;5.112;2023-04-15T02:04:41;100944.75;;;8.16;100.00
62031;BME280;62035;52.094;5.112;2023-04-15T02:07:09;100955.78;;;8.42;100.00
62031;BME280;62035;52.094;5.112;2023-04-15T02:09:37;100953.56;;;8.37;100.00
62031;BME280;62035;52.094;5.112;2023-04-15T02:12:04;100957.81;;;8.28;100.00
62031;BME280;62035;52.094;5.112;2023-04-15T02:14:32;100962.47;;;8.36;100.00
62031;BME280;62035;52.094;5.112;2023-04-15T02:17:00;100953.34;;;8.29;100.00
62031;BME280;62035;52.094;5.112;2023-04-15T02:19:33;100968.94;;;8.22;100.00
62031;BME280;62035;52.094;5.112;2023-04-15T02:22:01;100962.47;;;8.15;100.00
62031;BME280;62035;52.094;5.112;2023-04-15T02:24:29;100966.84;;;8.05;100.00
62031;BME280;62035;52.094;5.112;2023-04-15T02:26:57;100966.72;;;8.27;100.00
62031;BME280;62035;52.094;5.112;2023-04-15T02:29:24;100966.09;;;8.35;100.00
62031;BME280;62035;52.094;5.112;2023-04-15T02:31:52;100969.75;;;8.02;100.00
62031;BME280;62035;52.094;5.112;2023-04-15T02:34:19;100980.69;;;8.09;100.00
62031;BME280;62035;52.094;5.112;2023-04-15T02:36:48;100982.38;;;8.10;100.00
62031;BME280;62035;52.094;5.112;2023-04-15T02:39:19;100987.22;;;8.04;100.00
62031;BME280;62035;52.094;5.112;2023-04-15T02:41:47;100980.66;;;7.99;100.00
62031;BME280;62035;52.094;5.112;2023-04-15T02:44:17;100989.16;;;8.02;100.00
62031;BME280;62035;52.094;5.112;2023-04-15T02:46:45;100993.75;;;8.00;100.00
62031;BME280;62035;52.094;5.112;2023-04-15T02:49:15;100994.41;;;7.93;100.00
62031;BME280;62035;52.094;5.112;2023-04-15T02:51:43;100972.16;;;7.84;100.00
62031;BME280;62035;52.094;5.112;2023-04-15T02:54:15;100996.72;;;7.86;100.00
62031;BME280;62035;52.094;5.112;2023-04-15T02:56:43;101001.59;;;7.70;100.00
62031;BME280;62035;52.094;5.112;2023-04-15T02:59:11;101005.19;;;7.80;100.00
62031;BME280;62035;52.094;5.112;2023-04-15T03:01:39;101005.59;;;7.96;100.00
62031;BME280;62035;52.094;5.112;2023-04-15T03:04:06;101010.47;;;7.80;100.00
62031;BME280;62035;52.094;5.112;2023-04-15T03:06:34;101006.53;;;7.75;100.00
62031;BME280;62035;52.094;5.112;2023-04-15T03:09:02;101011.50;;;7.68;100.00
62031;BME280;62035;52.094;5.112;2023-04-15T03:11:31;101015.03;;;7.57;100.00
62031;BME280;62035;52.094;5.112;2023-04-15T03:13:59;101014.00;;;7.38;100.00
62031;BME280;62035;52.094;5.112;2023-04-15T03:16:26;101014.69;;;7.51;100.00
62031;BME280;62035;52.094;5.112;2023-04-15T03:18:54;101021.69;;;7.52;100.00
62031;BME280;62035;52.094;5.112;2023-04-15T03:21:21;101024.00;;;7.34;100.00
62031;BME280;62035;52.094;5.112;2023-04-15T03:23:49;101030.50;;;7.41;100.00
62031;BME280;62035;52.094;5.112;2023-04-15T03:26:23;101023.16;;;7.33;100.00
62031;BME280;62035;52.094;5.112;2023-04-15T03:28:55;101025.94;;;7.32;100.00
62031;BME280;62035;52.094;5.112;2023-04-15T03:31:23;101030.47;;;7.52;100.00
62031;BME280;62035;52.094;5.112;2023-04-15T03:33:51;101037.13;;;7.35;100.00
62031;BME280;62035;52.094;5.112;2023-04-15T03:36:18;101031.22;;;7.32;100.00
62031;BME280;62035;52.094;5.112;2023-04-15T03:38:46;101042.72;;;7.10;100.00
62031;BME280;62035;52.094;5.112;2023-04-15T03:41:14;101048.47;;;7.04;100.00
62031;BME280;62035;52.094;5.112;2023-04-15T03:43:42;101047.59;;;7.26;100.00
62031;BME280;62035;52.094;5.112;2023-04-15T03:46:11;101057.25;;;7.16;100.00
62031;BME280;62035;52.094;5.112;2023-04-15T03:48:38;101042.28;;;7.37;100.00
62031;BME280;62035;52.094;5.112;2023-04-15T03:51:06;101058.34;;;7.13;100.00
62031;BME280;62035;52.094;5.112;2023-04-15T03:53:34;101058.59;;;6.99;100.00
62031;BME280;62035;52.094;5.112;2023-04-15T03:56:01;101061.69;;;6.93;100.00
62031;BME280;62035;52.094;5.112;2023-04-15T03:58:29;101064.34;;;6.93;100.00
62031;BME280;62035;52.094;5.112;2023-04-15T04:00:57;101073.00;;;6.95;100.00
62031;BME280;62035;52.094;5.112;2023-04-15T04:03:26;101071.56;;;7.02;100.00
62031;BME280;62035;52.094;5.112;2023-04-15T04:05:53;101069.78;;;7.02;100.00
62031;BME280;62035;52.094;5.112;2023-04-15T04:08:21;101076.38;;;6.97;100.00
62031;BME280;62035;52.094;5.112;2023-04-15T04:10:48;101081.56;;;7.10;100.00
62031;BME280;62035;52.094;5.112;2023-04-15T04:13:16;101080.13;;;7.17;100.00
62031;BME280;62035;52.094;5.112;2023-04-15T04:15:44;101082.50;;;6.86;100.00
62031;BME280;62035;52.094;5.112;2023-04-15T04:18:11;101086.47;;;6.81;100.00
62031;BME280;62035;52.094;5.112;2023-04-15T04:20:40;101088.66;;;6.76;100.00
62031;BME280;62035;52.094;5.112;2023-04-15T04:23:08;101096.81;;;6.73;100.00
62031;BME280;62035;52.094;5.112;2023-04-15T04:25:36;101092.84;;;6.67;100.00
62031;BME280;62035;52.094;5.112;2023-04-15T04:28:04;101101.50;;;6.69;100.00
62031;BME280;62035;52.094;5.112;2023-04-15T04:30:31;101099.91;;;6.55;100.00
62031;BME280;62035;52.094;5.112;2023-04-15T04:32:59;101106.66;;;6.59;100.00
62031;BME280;62035;52.094;5.112;2023-04-15T04:35:27;101105.88;;;6.46;100.00
62031;BME280;62035;52.094;5.112;2023-04-15T04:37:56;101118.59;;;6.41;100.00
62031;BME280;62035;52.094;5.112;2023-04-15T04:40:23;101117.81;;;6.52;100.00
62031;BME280;62035;52.094;5.112;2023-04-15T04:42:51;101125.84;;;6.39;100.00
62031;BME280;62035;52.094;5.112;2023-04-15T04:45:19;101123.44;;;6.47;100.00
62031;BME280;62035;52.094;5.112;2023-04-15T04:47:47;101135.91;;;6.45;100.00
62031;BME280;62035;52.094;5.112;2023-04-15T04:50:15;101135.19;;;6.43;100.00
62031;BME280;62035;52.094;5.112;2023-04-15T04:52:43;101142.84;;;6.24;100.00
62031;BME280;62035;52.094;5.112;2023-04-15T04:55:12;101152.38;;;6.14;100.00
62031;BME280;62035;52.094;5.112;2023-04-15T04:57:39;101148.63;;;6.40;100.00
62031;BME280;62035;52.094;5.112;2023-04-15T05:00:08;101141.38;;;6.20;100.00
62031;BME280;62035;52.094;5.112;2023-04-15T05:02:36;101167.28;;;6.39;100.00
62031;BME280;62035;52.094;5.112;2023-04-15T05:05:04;101162.59;;;6.42;100.00
62031;BME280;62035;52.094;5.112;2023-04-15T05:07:33;101163.34;;;6.20;100.00
62031;BME280;62035;52.094;5.112;2023-04-15T05:10:00;101181.78;;;6.09;100.00
62031;BME280;62035;52.094;5.112;2023-04-15T05:12:29;101181.16;;;6.06;100.00
62031;BME280;62035;52.094;5.112;2023-04-15T05:14:57;101180.50;;;6.15;100.00
62031;BME280;62035;52.094;5.112;2023-04-15T05:17:25;101190.47;;;6.35;100.00
62031;BME280;62035;52.094;5.112;2023-04-15T05:19:52;101193.72;;;6.15;100.00
62031;BME280;62035;52.094;5.112;2023-04-15T05:22:20;101206.47;;;6.21;100.00
62031;BME280;62035;52.094;5.112;2023-04-15T05:24:48;101200.69;;;6.16;100.00
62031;BME280;62035;52.094;5.112;2023-04-15T05:27:15;101215.31;;;6.32;100.00
62031;BME280;62035;52.094;5.112;2023-04-15T05:29:45;101209.63;;;6.26;100.00
62031;BME280;62035;52.094;5.112;2023-04-15T05:32:13;101215.88;;;6.25;100.00
62031;BME280;62035;52.094;5.112;2023-04-15T05:34:40;101222.19;;;6.35;100.00
62031;BME280;62035;52.094;5.112;2023-04-15T05:37:08;101220.31;;;6.24;100.00
62031;BME280;62035;52.094;5.112;2023-04-15T05:39:35;101222.28;;;6.33;100.00
62031;BME280;62035;52.094;5.112;2023-04-15T05:42:03;101229.25;;;6.58;100.00
62031;BME280;62035;52.094;5.112;2023-04-15T05:44:32;101235.88;;;6.40;100.00
62031;BME280;62035;52.094;5.112;2023-04-15T05:47:00;101238.00;;;6.59;100.00
62031;BME280;62035;52.094;5.112;2023-04-15T05:49:28;101242.19;;;6.50;100.00
62031;BME280;62035;52.094;5.112;2023-04-15T05:51:56;101245.00;;;6.60;100.00
62031;BME280;62035;52.094;5.112;2023-04-15T05:54:23;101250.16;;;6.61;100.00
62031;BME280;62035;52.094;5.112;2023-04-15T05:56:53;101251.91;;;6.74;100.00
62031;BME280;62035;52.094;5.112;2023-04-15T05:59:21;101251.63;;;6.65;100.00
62031;BME280;62035;52.094;5.112;2023-04-15T06:01:49;101261.25;;;6.66;100.00
62031;BME280;62035;52.094;5.112;2023-04-15T06:04:18;101266.94;;;6.73;100.00
62031;BME280;62035;52.094;5.112;2023-04-15T06:06:46;101279.84;;;6.89;100.00
62031;BME280;62035;52.094;5.112;2023-04-15T06:09:14;101284.34;;;6.99;100.00
62031;BME280;62035;52.094;5.112;2023-04-15T06:11:41;101287.03;;;7.22;100.00
62031;BME280;62035;52.094;5.112;2023-04-15T06:14:09;101288.94;;;7.09;100.00
62031;BME280;62035;52.094;5.112;2023-04-15T06:16:37;101287.63;;;7.14;100.00
62031;BME280;62035;52.094;5.112;2023-04-15T06:19:04;101285.50;;;7.19;100.00
62031;BME280;62035;52.094;5.112;2023-04-15T06:21:33;101297.09;;;7.52;100.00
62031;BME280;62035;52.094;5.112;2023-04-15T06:24:01;101297.34;;;7.49;100.00
62031;BME280;62035;52.094;5.112;2023-04-15T06:26:29;101299.22;;;7.35;100.00
62031;BME280;62035;52.094;5.112;2023-04-15T06:28:56;101309.88;;;7.58;100.00
62031;BME280;62035;52.094;5.112;2023-04-15T06:31:24;101309.25;;;7.54;100.00
62031;BME280;62035;52.094;5.112;2023-04-15T06:33:51;101313.09;;;7.61;100.00
62031;BME280;62035;52.094;5.112;2023-04-15T06:36:19;101296.75;;;7.56;100.00
62031;BME280;62035;52.094;5.112;2023-04-15T06:38:48;101325.25;;;7.64;100.00
62031;BME280;62035;52.094;5.112;2023-04-15T06:41:15;101326.97;;;7.76;100.00
62031;BME280;62035;52.094;5.112;2023-04-15T06:43:44;101329.88;;;7.84;100.00
62031;BME280;62035;52.094;5.112;2023-04-15T06:46:11;101319.41;;;7.94;100.00
62031;BME280;62035;52.094;5.112;2023-04-15T06:48:39;101319.13;;;8.08;100.00
62031;BME280;62035;52.094;5.112;2023-04-15T06:51:06;101330.22;;;8.13;100.00
62031;BME280;62035;52.094;5.112;2023-04-15T06:53:34;101337.56;;;8.10;100.00
62031;BME280;62035;52.094;5.112;2023-04-15T06:56:07;101330.81;;;8.28;100.00
62031;BME280;62035;52.094;5.112;2023-04-15T06:58:35;101339.34;;;8.54;100.00
62031;BME280;62035;52.094;5.112;2023-04-15T07:01:03;101349.84;;;8.55;100.00
62031;BME280;62035;52.094;5.112;2023-04-15T07:03:31;101346.88;;;8.81;100.00
62031;BME280;62035;52.094;5.112;2023-04-15T07:05:59;101352.53;;;9.19;100.00
62031;BME280;62035;52.094;5.112;2023-04-15T07:08:26;101354.19;;;9.20;100.00
62031;BME280;62035;52.094;5.112;2023-04-15T07:10:54;101369.72;;;9.04;100.00
62031;BME280;62035;52.094;5.112;2023-04-15T07:13:23;101348.06;;;8.88;100.00
62031;BME280;62035;52.094;5.112;2023-04-15T07:15:51;101365.59;;;9.11;100.00
62031;BME280;62035;52.094;5.112;2023-04-15T07:18:19;101376.88;;;9.24;100.00
62031;BME280;62035;52.094;5.112;2023-04-15T07:20:46;101364.38;;;9.15;100.00
62031;BME280;62035;52.094;5.112;2023-04-15T07:23:14;101374.41;;;9.32;100.00
62031;BME280;62035;52.094;5.112;2023-04-15T07:25:42;101379.88;;;9.52;100.00
62031;BME280;62035;52.094;5.112;2023-04-15T07:28:10;101380.66;;;9.63;100.00
62031;BME280;62035;52.094;5.112;2023-04-15T07:30:38;101379.66;;;9.64;100.00
62031;BME280;62035;52.094;5.112;2023-04-15T07:33:06;101389.19;;;9.67;100.00
62031;BME280;62035;52.094;5.112;2023-04-15T07:35:34;101388.50;;;9.86;100.00
62031;BME280;62035;52.094;5.112;2023-04-15T07:38:01;101387.47;;;10.08;100.00
62031;BME280;62035;52.094;5.112;2023-04-15T07:40:29;101397.84;;;10.11;100.00
62031;BME280;62035;52.094;5.112;2023-04-15T07:42:57;101387.47;;;10.28;100.00
62031;BME280;62035;52.094;5.112;2023-04-15T07:45:24;101390.94;;;10.19;100.00
62031;BME280;62035;52.094;5.112;2023-04-15T07:47:54;101390.13;;;10.28;100.00
62031;BME280;62035;52.094;5.112;2023-04-15T07:50:22;101395.75;;;10.35;100.00
62031;BME280;62035;52.094;5.112;2023-04-15T07:52:50;101390.75;;;10.51;100.00
62031;BME280;62035;52.094;5.112;2023-04-15T07:55:18;101373.19;;;10.79;100.00
62031;BME280;62035;52.094;5.112;2023-04-15T07:57:48;101399.81;;;10.89;100.00
62031;BME280;62035;52.094;5.112;2023-04-15T08:00:16;101401.63;;;10.88;100.00
62031;BME280;62035;52.094;5.112;2023-04-15T08:02:43;101411.44;;;10.88;100.00
62031;BME280;62035;52.094;5.112;2023-04-15T08:05:13;101408.47;;;10.81;100.00
62031;BME280;62035;52.094;5.112;2023-04-15T08:07:41;101411.47;;;10.97;100.00
62031;BME280;62035;52.094;5.112;2023-04-15T08:10:09;101425.78;;;11.25;100.00
62031;BME280;62035;52.094;5.112;2023-04-15T08:12:37;101417.78;;;11.25;100.00
62031;BME280;62035;52.094;5.112;2023-04-15T08:15:05;101419.75;;;11.33;100.00
62031;BME280;62035;52.094;5.112;2023-04-15T08:17:34;101419.22;;;11.49;100.00
62031;BME280;62035;52.094;5.112;2023-04-15T08:20:02;101428.03;;;11.59;100.00
62031;BME280;62035;52.094;5.112;2023-04-15T08:22:32;101434.47;;;11.66;100.00
62031;BME280;62035;52.094;5.112;2023-04-15T08:24:59;101432.78;;;11.94;100.00
62031;BME280;62035;52.094;5.112;2023-04-15T08:27:27;101431.13;;;12.30;100.00
62031;BME280;62035;52.094;5.112;2023-04-15T08:29:55;101428.59;;;11.91;100.00
62031;BME280;62035;52.094;5.112;2023-04-15T08:32:22;101431.13;;;11.93;100.00
62031;BME280;62035;52.094;5.112;2023-04-15T08:34:51;101437.03;;;11.77;100.00
62031;BME280;62035;52.094;5.112;2023-04-15T08:37:19;101439.97;;;11.84;100.00
62031;BME280;62035;52.094;5.112;2023-04-15T08:39:49;101439.84;;;12.32;100.00
62031;BME280;62035;52.094;5.112;2023-04-15T08:42:21;101446.56;;;12.36;100.00
62031;BME280;62035;52.094;5.112;2023-04-15T08:44:54;101453.63;;;12.64;100.00
62031;BME280;62035;52.094;5.112;2023-04-15T08:47:25;101453.22;;;12.59;100.00
62031;BME280;62035;52.094;5.112;2023-04-15T08:49:56;101465.97;;;12.65;100.00
62031;BME280;62035;52.094;5.112;2023-04-15T08:52:25;101454.59;;;12.63;100.00
62031;BME280;62035;52.094;5.112;2023-04-15T08:54:56;101463.72;;;12.71;100.00
62031;BME280;62035;52.094;5.112;2023-04-15T08:57:25;101480.16;;;12.66;100.00
62031;BME280;62035;52.094;5.112;2023-04-15T08:59:55;101477.25;;;12.59;100.00
62031;BME280;62035;52.094;5.112;2023-04-15T09:02:23;101487.59;;;12.35;100.00
62031;BME280;62035;52.094;5.112;2023-04-15T09:04:52;101489.00;;;12.29;100.00
62031;BME280;62035;52.094;5.112;2023-04-15T09:07:20;101485.50;;;12.29;100.00
62031;BME280;62035;52.094;5.112;2023-04-15T09:09:47;101482.72;;;12.58;100.00
62031;BME280;62035;52.094;5.112;2023-04-15T09:12:17;101493.34;;;12.77;100.00
62031;BME280;62035;52.094;5.112;2023-04-15T09:14:45;101493.03;;;13.08;100.00
62031;BME280;62035;52.094;5.112;2023-04-15T09:17:17;101505.06;;;12.94;100.00
62031;BME280;62035;52.094;5.112;2023-04-15T09:19:46;101497.69;;;12.78;100.00
62031;BME280;62035;52.094;5.112;2023-04-15T09:22:14;101508.16;;;12.89;100.00
62031;BME280;62035;52.094;5.112;2023-04-15T09:24:42;101512.59;;;13.08;100.00
62031;BME280;62035;52.094;5.112;2023-04-15T09:27:09;101517.22;;;13.16;100.00
62031;BME280;62035;52.094;5.112;2023-04-15T09:29:40;101512.41;;;13.19;100.00
62031;BME280;62035;52.094;5.112;2023-04-15T09:32:09;101527.81;;;13.25;100.00
62031;BME280;62035;52.094;5.112;2023-04-15T09:34:38;101526.38;;;13.03;100.00
62031;BME280;62035;52.094;5.112;2023-04-15T09:37:05;101528.47;;;13.10;100.00
62031;BME280;62035;52.094;5.112;2023-04-15T09:39:45;101527.31;;;13.40;100.00
62031;BME280;62035;52.094;5.112;2023-04-15T09:42:15;101531.72;;;13.58;100.00
62031;BME280;62035;52.094;5.112;2023-04-15T09:44:50;101533.13;;;13.08;100.00
62031;BME280;62035;52.094;5.112;2023-04-15T09:47:27;101532.00;;;13.55;100.00
62031;BME280;62035;52.094;5.112;2023-04-15T09:49:56;101539.94;;;13.47;100.00
62031;BME280;62035;52.094;5.112;2023-04-15T09:52:24;101543.59;;;13.64;100.00
62031;BME280;62035;52.094;5.112;2023-04-15T09:54:53;101537.25;;;13.65;100.00
62031;BME280;62035;52.094;5.112;2023-04-15T09:57:22;101545.53;;;13.54;100.00
62031;BME280;62035;52.094;5.112;2023-04-15T09:59:51;101552.38;;;13.39;100.00
62031;BME280;62035;52.094;5.112;2023-04-15T10:02:19;101538.41;;;13.62;100.00
62031;BME280;62035;52.094;5.112;2023-04-15T10:04:47;101525.03;;;13.80;100.00
62031;BME280;62035;52.094;5.112;2023-04-15T10:07:16;101548.75;;;13.93;100.00
62031;BME280;62035;52.094;5.112;2023-04-15T10:09:45;101549.78;;;14.18;100.00
62031;BME280;62035;52.094;5.112;2023-04-15T10:12:16;101546.84;;;14.29;100.00
62031;BME280;62035;52.094;5.112;2023-04-15T10:14:47;101565.94;;;14.52;100.00
62031;BME280;62035;52.094;5.112;2023-04-15T10:17:26;101559.94;;;14.32;100.00
62031;BME280;62035;52.094;5.112;2023-04-15T10:19:54;101565.59;;;14.29;100.00
62031;BME280;62035;52.094;5.112;2023-04-15T10:22:23;101561.56;;;14.25;100.00
62031;BME280;62035;52.094;5.112;2023-04-15T10:24:53;101562.09;;;14.11;100.00
62031;BME280;62035;52.094;5.112;2023-04-15T10:27:22;101560.91;;;13.87;100.00
62031;BME280;62035;52.094;5.112;2023-04-15T10:29:50;101576.63;;;14.26;100.00
62031;BME280;62035;52.094;5.112;2023-04-15T10:32:21;101581.97;;;14.08;100.00
62031;BME280;62035;52.094;5.112;2023-04-15T10:34:51;101569.75;;;14.23;100.00
62031;BME280;62035;52.094;5.112;2023-04-15T10:37:21;101565.88;;;14.44;100.00
62031;BME280;62035;52.094;5.112;2023-04-15T10:39:59;101568.53;;;14.61;100.00
62031;BME280;62035;52.094;5.112;2023-04-15T10:42:33;101575.81;;;14.51;100.00
62031;BME280;62035;52.094;5.112;2023-04-15T10:45:15;101574.16;;;14.76;100.00
62031;BME280;62035;52.094;5.112;2023-04-15T10:47:44;101578.72;;;15.26;100.00
62031;BME280;62035;52.094;5.112;2023-04-15T10:50:12;101591.09;;;15.11;100.00
62031;BME280;62035;52.094;5.112;2023-04-15T10:52:40;101590.31;;;14.92;100.00
62031;BME280;62035;52.094;5.112;2023-04-15T10:55:14;101591.53;;;14.72;100.00
62031;BME280;62035;52.094;5.112;2023-04-15T10:57:46;101596.25;;;14.52;100.00
62031;BME280;62035;52.094;5.112;2023-04-15T11:00:24;101595.03;;;14.47;100.00
62031;BME280;62035;52.094;5.112;2023-04-15T11:02:54;101587.72;;;14.83;100.00
62031;BME280;62035;52.094;5.112;2023-04-15T11:05:50;101599.50;;;14.90;100.00
62031;BME280;62035;52.094;5.112;2023-04-15T11:08:19;101595.06;;;14.73;100.00
62031;BME280;62035;52.094;5.112;2023-04-15T11:10:50;101600.31;;;14.39;100.00
62031;BME280;62035;52.094;5.112;2023-04-15T11:13:23;101598.13;;;14.34;100.00
62031;BME280;62035;52.094;5.112;2023-04-15T11:15:54;101605.59;;;14.48;100.00
62031;BME280;62035;52.094;5.112;2023-04-15T11:18:31;101601.94;;;14.75;100.00
62031;BME280;62035;52.094;5.112;2023-04-15T11:21:03;101602.66;;;15.11;100.00
62031;BME280;62035;52.094;5.112;2023-04-15T11:23:35;101603.81;;;14.57;100.00
62031;BME280;62035;52.094;5.112;2023-04-15T11:26:05;101617.81;;;14.68;100.00
62031;BME280;62035;52.094;5.112;2023-04-15T11:28:38;101617.13;;;14.66;100.00
62031;BME280;62035;52.094;5.112;2023-04-15T11:31:08;101622.31;;;14.68;100.00
62031;BME280;62035;52.094;5.112;2023-04-15T11:33:44;101628.16;;;15.15;100.00
62031;BME280;62035;52.094;5.112;2023-04-15T11:36:14;101635.81;;;15.44;100.00
62031;BME280;62035;52.094;5.112;2023-04-15T11:38:42;101632.50;;;15.16;100.00
62031;BME280;62035;52.094;5.112;2023-04-15T11:41:11;101629.88;;;15.58;100.00
62031;BME280;62035;52.094;5.112;2023-04-15T11:43:39;101638.03;;;15.23;100.00
62031;BME280;62035;52.094;5.112;2023-04-15T11:46:07;101644.22;;;15.15;100.00
62031;BME280;62035;52.094;5.112;2023-04-15T11:48:35;101654.34;;;15.29;100.00
62031;BME280;62035;52.094;5.112;2023-04-15T11:51:04;101662.66;;;15.86;100.00
62031;BME280;62035;52.094;5.112;2023-04-15T11:53:38;101649.50;;;14.99;100.00
62031;BME280;62035;52.094;5.112;2023-04-15T11:56:08;101649.59;;;15.15;100.00
62031;BME280;62035;52.094;5.112;2023-04-15T11:58:37;101648.91;;;15.47;100.00
62031;BME280;62035;52.094;5.112;2023-04-15T12:01:05;101666.88;;;15.55;100.00
62031;BME280;62035;52.094;5.112;2023-04-15T12:03:37;101667.47;;;15.41;100.00
62031;BME280;62035;52.094;5.112;2023-04-15T12:06:11;101660.03;;;15.60;100.00
62031;BME280;62035;52.094;5.112;2023-04-15T12:11:38;101669.53;;;15.21;100.00
62031;BME280;62035;52.094;5.112;2023-04-15T12:14:21;101668.03;;;15.52;100.00
62031;BME280;62035;52.094;5.112;2023-04-15T12:16:52;101675.69;;;15.39;100.00
62031;BME280;62035;52.094;5.112;2023-04-15T12:19:24;101678.75;;;15.52;100.00
62031;BME280;62035;52.094;5.112;2023-04-15T12:21:59;101660.00;;;16.19;100.00
62031;BME280;62035;52.094;5.112;2023-04-15T12:24:32;101672.03;;;15.82;100.00
62031;BME280;62035;52.094;5.112;2023-04-15T12:27:01;101677.75;;;15.53;100.00
62031;BME280;62035;52.094;5.112;2023-04-15T12:29:31;101684.81;;;16.05;100.00
62031;BME280;62035;52.094;5.112;2023-04-15T12:32:04;101692.97;;;15.45;100.00
62031;BME280;62035;52.094;5.112;2023-04-15T12:34:34;101693.63;;;15.39;100.00
62031;BME280;62035;52.094;5.112;2023-04-15T12:37:05;101711.03;;;15.34;100.00
62031;BME280;62035;52.094;5.112;2023-04-15T12:39:37;101708.91;;;15.20;100.00
62031;BME280;62035;52.094;5.112;2023-04-15T12:42:06;101713.66;;;15.52;100.00
62031;BME280;62035;52.094;5.112;2023-04-15T12:44:35;101712.53;;;16.13;100.00
62031;BME280;62035;52.094;5.112;2023-04-15T12:47:04;101706.22;;;16.30;100.00
62031;BME280;62035;52.094;5.112;2023-04-15T12:49:32;101700.56;;;15.99;100.00
62031;BME280;62035;52.094;5.112;2023-04-15T12:52:01;101714.88;;;16.08;100.00
62031;BME280;62035;52.094;5.112;2023-04-15T12:54:30;101716.78;;;16.40;100.00
62031;BME280;62035;52.094;5.112;2023-04-15T12:56:59;101716.09;;;16.46;100.00